Time;durP1;ratioP1;P1;durP2;ratioP2;P2;SDS_P1;SDS_P2;PMS_P1;PMS_P2;Temp;Humidity;BMP_temperature;BMP_pressure;BME280_temperature;BME280_humidity;BME280_pressure;Samples;Min_cycle;Max_cycle;Signal;HPM_P1;HPM_P2
2023/03/31 00:01:44;;;;;;;4.28;1.30;;;;;;;;;;4803397;29;20066;-64
2023/03/31 00:04:14;;;;;;;3.70;1.40;;;;;;;;;;4802981;29;20055;-64
2023/03/31 00:06:46;;;;;;;5.93;1.60;;;;;;;;;;4802762;29;20066;-63
2023/03/31 00:09:20;;;;;;;4.38;1.90;;;;;;;;;;4803090;29;20405;-63
2023/03/31 00:11:52;;;;;;;7.13;1.90;;;;;;;;;;4783190;30;20068;-63
2023/03/31 00:14:22;;;;;;;5.50;1.67;;;;;;;;;;4802420;29;20063;-63
2023/03/31 00:16:55;;;;;;;4.80;1.75;;;;;;;;;;4799182;29;20059;-62
2023/03/31 00:19:48;;;;;;;5.50;1.50;;;;;;;;;;4806618;29;20550;-63
2023/03/31 00:22:21;;;;;;;6.55;2.38;;;;;;;;;;4839405;29;20062;-66
2023/03/31 00:25:14;;;;;;;13.60;1.83;;;;;;;;;;4766476;30;20059;-63
2023/03/31 00:28:04;;;;;;;4.38;1.10;;;;;;;;;;4784740;29;20501;-63
2023/03/31 00:30:35;;;;;;;5.13;1.85;;;;;;;;;;4760223;30;20063;-64
2023/03/31 00:33:07;;;;;;;4.35;1.60;;;;;;;;;;4692999;30;20054;-63
2023/03/31 00:35:38;;;;;;;4.05;1.73;;;;;;;;;;4679569;30;20077;-63
2023/03/31 00:38:12;;;;;;;7.15;2.22;;;;;;;;;;4675042;30;20053;-64
2023/03/31 00:40:46;;;;;;;6.15;1.77;;;;;;;;;;4679883;30;20073;-63
2023/03/31 00:43:41;;;;;;;6.57;1.80;;;;;;;;;;4774388;29;20056;-64
2023/03/31 00:46:26;;;;;;;4.95;1.67;;;;;;;;;;4746551;30;20064;-64
2023/03/31 00:49:43;;;;;;;6.68;2.00;;;;;;;;;;4703638;30;20057;-63
2023/03/31 00:52:23;;;;;;;4.10;2.42;;;;;;;;;;4725032;30;20422;-63
2023/03/31 00:54:58;;;;;;;5.97;2.15;;;;;;;;;;4731329;30;20071;-63
2023/03/31 00:57:31;;;;;;;4.72;1.98;;;;;;;;;;4734246;30;20067;-63
2023/03/31 01:00:17;;;;;;;5.13;1.73;;;;;;;;;;4765821;30;20064;-63
2023/03/31 01:02:58;;;;;;;4.30;1.80;;;;;;;;;;4748902;30;20056;-64
2023/03/31 01:05:54;;;;;;;4.35;1.80;;;;;;;;;;4755877;30;20080;-64
2023/03/31 01:08:27;;;;;;;11.13;2.25;;;;;;;;;;4805061;29;20065;-63
2023/03/31 01:11:03;;;;;;;5.88;2.03;;;;;;;;;;4827310;29;20061;-63
2023/03/31 01:13:38;;;;;;;6.57;1.52;;;;;;;;;;4838536;29;20060;-63
2023/03/31 01:16:09;;;;;;;6.90;2.90;;;;;;;;;;4853782;29;20069;-63
2023/03/31 01:18:39;;;;;;;5.40;2.75;;;;;;;;;;4801602;29;20977;-63
2023/03/31 01:21:29;;;;;;;5.47;1.90;;;;;;;;;;4772224;29;20089;-63
2023/03/31 01:24:37;;;;;;;6.72;1.85;;;;;;;;;;4790804;29;20206;-63
2023/03/31 01:28:00;;;;;;;5.80;1.60;;;;;;;;;;4838139;29;20062;-64
2023/03/31 01:30:30;;;;;;;5.38;1.58;;;;;;;;;;4736545;30;20063;-63
2023/03/31 01:33:03;;;;;;;4.57;2.00;;;;;;;;;;4766169;30;20536;-63
2023/03/31 01:36:02;;;;;;;8.52;2.47;;;;;;;;;;4778147;30;20086;-63
2023/03/31 01:39:33;;;;;;;4.80;2.08;;;;;;;;;;4799756;29;20058;-62
2023/03/31 01:42:24;;;;;;;7.28;2.15;;;;;;;;;;4768776;30;20556;-62
2023/03/31 01:45:17;;;;;;;6.65;2.05;;;;;;;;;;4793629;29;20066;-63
2023/03/31 01:47:57;;;;;;;4.25;1.77;;;;;;;;;;4801619;29;20512;-63
2023/03/31 01:50:59;;;;;;;4.13;1.70;;;;;;;;;;4801452;29;20054;-63
2023/03/31 01:53:58;;;;;;;10.45;2.20;;;;;;;;;;4748068;30;20079;-63
2023/03/31 01:56:37;;;;;;;10.23;2.50;;;;;;;;;;4754200;30;20055;-64
2023/03/31 01:59:25;;;;;;;9.07;2.50;;;;;;;;;;4765591;30;20070;-63
2023/03/31 02:02:14;;;;;;;9.07;2.60;;;;;;;;;;4766065;30;20070;-63
2023/03/31 02:04:58;;;;;;;5.25;2.15;;;;;;;;;;4783658;30;20067;-64
2023/03/31 02:07:45;;;;;;;4.95;2.38;;;;;;;;;;4819638;29;20073;-64
2023/03/31 02:10:17;;;;;;;7.25;2.55;;;;;;;;;;4820838;29;20107;-63
2023/03/31 02:12:48;;;;;;;6.95;2.03;;;;;;;;;;4834208;29;20565;-64
2023/03/31 02:15:25;;;;;;;4.72;1.90;;;;;;;;;;4841332;29;20054;-63
2023/03/31 02:17:58;;;;;;;5.72;1.80;;;;;;;;;;4841733;29;20562;-64
2023/03/31 02:20:31;;;;;;;4.45;1.83;;;;;;;;;;4841533;29;20058;-64
2023/03/31 02:23:01;;;;;;;9.40;1.70;;;;;;;;;;4841558;29;20073;-64
2023/03/31 02:25:37;;;;;;;9.77;1.85;;;;;;;;;;4841573;29;20640;-67
2023/03/31 02:28:14;;;;;;;3.28;1.70;;;;;;;;;;4850488;29;20056;-64
2023/03/31 02:30:56;;;;;;;4.15;1.52;;;;;;;;;;4874319;29;20055;-65
2023/03/31 02:33:27;;;;;;;7.13;1.90;;;;;;;;;;4892742;29;20524;-65
2023/03/31 02:36:01;;;;;;;3.90;1.50;;;;;;;;;;4829160;29;20068;-64
2023/03/31 02:38:37;;;;;;;5.82;2.00;;;;;;;;;;4841220;29;20104;-64
2023/03/31 02:41:08;;;;;;;3.85;1.40;;;;;;;;;;4841076;29;20061;-64
2023/03/31 02:43:37;;;;;;;7.57;2.10;;;;;;;;;;4822573;29;20067;-64
2023/03/31 02:46:08;;;;;;;7.53;1.70;;;;;;;;;;4807822;29;20082;-65
2023/03/31 02:48:49;;;;;;;3.95;1.33;;;;;;;;;;4840841;29;20062;-64
2023/03/31 02:51:55;;;;;;;10.73;1.90;;;;;;;;;;4825683;29;20050;-64
2023/03/31 02:54:37;;;;;;;3.65;1.60;;;;;;;;;;4807670;29;20061;-65
2023/03/31 02:57:16;;;;;;;4.85;1.58;;;;;;;;;;4840578;29;20054;-64
2023/03/31 02:59:58;;;;;;;4.13;1.30;;;;;;;;;;4804392;29;20411;-64
2023/03/31 03:02:39;;;;;;;4.85;1.52;;;;;;;;;;4817170;29;20062;-64
2023/03/31 03:05:33;;;;;;;5.65;1.23;;;;;;;;;;4807163;29;20054;-64
2023/03/31 03:08:36;;;;;;;9.57;1.27;;;;;;;;;;4822271;29;20082;-64
2023/03/31 03:11:21;;;;;;;4.32;1.60;;;;;;;;;;4824313;29;20057;-64
2023/03/31 03:14:04;;;;;;;11.15;1.60;;;;;;;;;;4822422;29;20054;-64
2023/03/31 03:16:43;;;;;;;4.85;1.67;;;;;;;;;;4818281;29;20049;-65
2023/03/31 03:19:20;;;;;;;4.70;1.65;;;;;;;;;;4858877;29;20070;-64
2023/03/31 03:21:50;;;;;;;9.52;1.80;;;;;;;;;;4858648;29;20186;-64
2023/03/31 03:24:21;;;;;;;4.55;1.63;;;;;;;;;;4843505;29;20053;-64
2023/03/31 03:26:51;;;;;;;4.50;1.52;;;;;;;;;;4858779;29;20058;-64
2023/03/31 03:29:21;;;;;;;4.63;1.80;;;;;;;;;;4843452;29;20552;-64
2023/03/31 03:31:51;;;;;;;7.68;1.85;;;;;;;;;;4858997;29;20409;-64
2023/03/31 03:34:21;;;;;;;9.35;2.30;;;;;;;;;;4864645;29;20509;-65
2023/03/31 03:36:50;;;;;;;8.98;2.15;;;;;;;;;;4889974;29;20062;-64
2023/03/31 03:39:20;;;;;;;4.43;1.92;;;;;;;;;;4917991;29;20064;-64
2023/03/31 03:41:50;;;;;;;7.20;2.10;;;;;;;;;;4933894;29;20060;-64
2023/03/31 03:44:20;;;;;;;6.28;2.05;;;;;;;;;;4933724;29;20528;-64
2023/03/31 03:46:50;;;;;;;6.35;2.13;;;;;;;;;;4933935;29;20047;-64
2023/03/31 03:49:20;;;;;;;5.68;2.70;;;;;;;;;;4951964;28;20392;-64
2023/03/31 03:51:50;;;;;;;6.03;2.10;;;;;;;;;;4956892;28;20396;-64
2023/03/31 03:54:20;;;;;;;5.72;1.75;;;;;;;;;;5013562;28;20050;-64
2023/03/31 03:56:50;;;;;;;6.10;2.50;;;;;;;;;;4971979;28;20577;-64
2023/03/31 03:59:20;;;;;;;5.47;2.33;;;;;;;;;;4972173;28;20067;-64
2023/03/31 04:01:51;;;;;;;7.15;1.80;;;;;;;;;;4956332;28;20521;-64
2023/03/31 04:04:21;;;;;;;5.30;2.22;;;;;;;;;;4972223;28;20523;-64
2023/03/31 04:06:51;;;;;;;7.10;2.72;;;;;;;;;;4971539;28;20054;-65
2023/03/31 04:09:21;;;;;;;8.25;2.47;;;;;;;;;;4940374;28;20426;-64
2023/03/31 04:11:50;;;;;;;6.40;2.80;;;;;;;;;;4939546;28;20546;-64
2023/03/31 04:14:20;;;;;;;9.07;2.28;;;;;;;;;;4940519;28;20059;-64
2023/03/31 04:16:50;;;;;;;6.13;2.13;;;;;;;;;;4971744;28;20070;-64
2023/03/31 04:19:20;;;;;;;5.25;2.10;;;;;;;;;;4971642;28;20063;-64
2023/03/31 04:21:57;;;;;;;5.13;2.45;;;;;;;;;;4971382;28;20066;-64
2023/03/31 04:24:31;;;;;;;7.00;2.03;;;;;;;;;;4971440;28;20055;-64
2023/03/31 04:27:03;;;;;;;5.93;2.22;;;;;;;;;;4973351;28;20093;-64
2023/03/31 04:29:36;;;;;;;5.40;2.08;;;;;;;;;;4975037;28;20050;-64
2023/03/31 04:32:06;;;;;;;6.03;1.90;;;;;;;;;;4926175;28;20459;-64
2023/03/31 04:34:36;;;;;;;4.75;2.03;;;;;;;;;;4989969;28;20050;-64
2023/03/31 04:37:09;;;;;;;5.60;1.80;;;;;;;;;;4990651;28;20967;-62
2023/03/31 04:39:39;;;;;;;8.80;1.70;;;;;;;;;;4990780;28;20051;-63
2023/03/31 04:42:09;;;;;;;8.05;1.98;;;;;;;;;;4990717;28;20057;-64
2023/03/31 04:44:40;;;;;;;5.18;2.00;;;;;;;;;;5003372;28;20073;-64
2023/03/31 04:47:09;;;;;;;8.25;2.08;;;;;;;;;;5012250;28;20513;-63
2023/03/31 04:49:39;;;;;;;6.25;2.55;;;;;;;;;;4958832;28;20058;-63
2023/03/31 04:52:09;;;;;;;8.45;2.45;;;;;;;;;;5012528;28;20498;-64
2023/03/31 04:54:39;;;;;;;8.07;1.98;;;;;;;;;;5012697;28;20042;-63
2023/03/31 04:57:09;;;;;;;10.50;2.28;;;;;;;;;;4994043;28;20525;-63
2023/03/31 04:59:39;;;;;;;8.55;2.13;;;;;;;;;;4962006;28;20054;-64
2023/03/31 05:02:09;;;;;;;4.18;1.73;;;;;;;;;;4961397;28;20071;-64
2023/03/31 05:04:39;;;;;;;5.43;1.85;;;;;;;;;;4994314;28;20080;-64
2023/03/31 05:07:10;;;;;;;4.13;1.67;;;;;;;;;;5012138;28;20046;-63
2023/03/31 05:09:41;;;;;;;4.20;1.80;;;;;;;;;;4993663;28;20549;-63
2023/03/31 05:12:12;;;;;;;6.43;2.00;;;;;;;;;;5011930;28;20038;-64
2023/03/31 05:14:42;;;;;;;9.63;1.63;;;;;;;;;;5012447;28;20424;-63
2023/03/31 05:17:12;;;;;;;4.43;1.92;;;;;;;;;;4993804;28;20062;-63
2023/03/31 05:19:42;;;;;;;7.95;1.85;;;;;;;;;;4995261;28;20056;-63
2023/03/31 05:22:11;;;;;;;5.80;1.90;;;;;;;;;;5012039;28;20057;-63
2023/03/31 05:24:42;;;;;;;6.68;2.50;;;;;;;;;;5011757;28;20508;-63
2023/03/31 05:27:12;;;;;;;8.40;1.92;;;;;;;;;;4989574;28;20054;-64
2023/03/31 05:29:42;;;;;;;4.05;1.80;;;;;;;;;;4989817;28;20074;-63
2023/03/31 05:32:12;;;;;;;3.03;1.70;;;;;;;;;;4956922;28;20062;-64
2023/03/31 05:34:42;;;;;;;8.48;2.33;;;;;;;;;;5009709;28;20056;-64
2023/03/31 05:37:12;;;;;;;5.60;2.10;;;;;;;;;;5009249;28;20046;-63
2023/03/31 05:39:42;;;;;;;5.72;1.90;;;;;;;;;;5009465;28;20053;-64
2023/03/31 05:42:12;;;;;;;9.15;2.13;;;;;;;;;;4970171;28;20546;-63
2023/03/31 05:44:42;;;;;;;4.50;2.35;;;;;;;;;;4970126;28;20563;-63
2023/03/31 05:47:12;;;;;;;7.00;2.55;;;;;;;;;;4970217;28;20218;-63
2023/03/31 05:49:42;;;;;;;8.13;1.85;;;;;;;;;;4970391;28;20446;-63
2023/03/31 05:52:12;;;;;;;8.68;2.10;;;;;;;;;;4970308;28;20070;-64
2023/03/31 05:54:43;;;;;;;4.95;2.08;;;;;;;;;;4969959;28;20043;-63
2023/03/31 05:57:13;;;;;;;6.75;2.13;;;;;;;;;;4970481;28;20624;-63
2023/03/31 05:59:43;;;;;;;2.97;1.70;;;;;;;;;;4954209;28;20050;-63
2023/03/31 06:02:14;;;;;;;3.28;1.45;;;;;;;;;;4970485;28;20058;-63
2023/03/31 06:04:44;;;;;;;9.07;1.80;;;;;;;;;;4913161;29;20063;-65
2023/03/31 06:07:16;;;;;;;3.38;1.75;;;;;;;;;;4919024;29;20051;-64
2023/03/31 06:09:46;;;;;;;5.07;1.85;;;;;;;;;;4950995;28;20058;-63
2023/03/31 06:12:16;;;;;;;7.70;1.75;;;;;;;;;;4951020;29;20459;-63
2023/03/31 06:14:47;;;;;;;4.30;1.90;;;;;;;;;;4950309;29;20063;-63
2023/03/31 06:17:17;;;;;;;8.75;1.70;;;;;;;;;;4944766;29;20511;-63
2023/03/31 06:19:46;;;;;;;6.55;2.05;;;;;;;;;;4929150;28;20395;-63
2023/03/31 06:22:17;;;;;;;7.50;1.90;;;;;;;;;;5011561;28;20046;-63
2023/03/31 06:24:47;;;;;;;6.43;2.13;;;;;;;;;;5010124;28;20398;-64
2023/03/31 06:27:17;;;;;;;5.82;2.20;;;;;;;;;;5011269;28;20061;-63
2023/03/31 06:29:49;;;;;;;5.97;2.03;;;;;;;;;;4969465;28;20537;-66
2023/03/31 06:32:19;;;;;;;8.20;1.95;;;;;;;;;;4969678;28;20058;-65
2023/03/31 06:34:48;;;;;;;4.53;1.95;;;;;;;;;;4921892;28;20073;-63
2023/03/31 06:37:18;;;;;;;7.55;1.92;;;;;;;;;;4969775;28;20054;-64
2023/03/31 06:39:49;;;;;;;5.68;1.90;;;;;;;;;;4922956;28;20062;-65
2023/03/31 06:42:19;;;;;;;5.75;1.63;;;;;;;;;;4969910;28;20065;-63
2023/03/31 06:44:49;;;;;;;4.85;1.90;;;;;;;;;;4952706;28;20183;-63
2023/03/31 06:47:19;;;;;;;6.55;1.90;;;;;;;;;;4970077;28;20055;-63
2023/03/31 06:49:49;;;;;;;9.95;2.00;;;;;;;;;;4969777;28;20054;-64
2023/03/31 06:52:20;;;;;;;7.05;2.15;;;;;;;;;;4969830;28;20051;-63
2023/03/31 06:54:50;;;;;;;4.85;1.92;;;;;;;;;;4969250;28;20529;-64
2023/03/31 06:57:20;;;;;;;4.70;2.38;;;;;;;;;;4955119;28;20550;-63
2023/03/31 06:59:50;;;;;;;4.85;2.17;;;;;;;;;;4925203;28;20054;-63
2023/03/31 07:02:20;;;;;;;4.95;2.13;;;;;;;;;;4940849;28;20074;-63
2023/03/31 07:04:50;;;;;;;4.88;2.15;;;;;;;;;;4973061;28;20050;-62
2023/03/31 07:07:20;;;;;;;9.27;2.00;;;;;;;;;;4943022;29;20051;-63
2023/03/31 07:09:49;;;;;;;6.05;1.95;;;;;;;;;;4953381;29;20051;-63
2023/03/31 07:12:22;;;;;;;6.05;2.15;;;;;;;;;;4902882;29;20059;-63
2023/03/31 07:14:52;;;;;;;5.90;2.05;;;;;;;;;;4951986;29;20043;-63
2023/03/31 07:17:24;;;;;;;5.80;1.90;;;;;;;;;;4938119;29;20051;-63
2023/03/31 07:19:54;;;;;;;4.13;2.00;;;;;;;;;;4953428;29;20055;-63
2023/03/31 07:22:23;;;;;;;3.67;1.90;;;;;;;;;;4905892;29;20067;-63
2023/03/31 07:24:53;;;;;;;5.75;2.38;;;;;;;;;;4953319;29;20063;-62
2023/03/31 07:27:23;;;;;;;4.72;1.80;;;;;;;;;;4953259;28;20090;-63
2023/03/31 07:29:54;;;;;;;7.72;2.10;;;;;;;;;;4937065;29;20055;-64
2023/03/31 07:32:24;;;;;;;4.75;1.77;;;;;;;;;;4940972;28;20061;-64
2023/03/31 07:34:56;;;;;;;6.10;1.90;;;;;;;;;;4972541;28;20446;-63
2023/03/31 07:37:26;;;;;;;3.47;2.03;;;;;;;;;;4940207;28;20410;-63
2023/03/31 07:39:56;;;;;;;4.35;1.83;;;;;;;;;;4972422;28;20166;-64
2023/03/31 07:42:25;;;;;;;6.90;2.00;;;;;;;;;;4972226;28;20514;-63
2023/03/31 07:44:55;;;;;;;5.40;1.80;;;;;;;;;;4947614;28;20062;-63
2023/03/31 07:47:26;;;;;;;12.00;2.20;;;;;;;;;;5013794;28;20038;-63
2023/03/31 07:49:59;;;;;;;7.40;2.25;;;;;;;;;;5013641;28;20038;-63
2023/03/31 07:52:29;;;;;;;8.50;2.13;;;;;;;;;;5013173;28;20046;-63
2023/03/31 07:54:59;;;;;;;5.30;2.10;;;;;;;;;;5013598;28;20034;-65
2023/03/31 07:57:29;;;;;;;6.40;2.53;;;;;;;;;;5013816;28;20054;-63
2023/03/31 07:59:59;;;;;;;3.42;1.40;;;;;;;;;;4978713;28;20521;-63
2023/03/31 08:02:41;;;;;;;5.03;2.10;;;;;;;;;;5013244;28;20050;-64
2023/03/31 08:05:14;;;;;;;6.13;2.30;;;;;;;;;;5013425;28;20126;-63
2023/03/31 08:07:46;;;;;;;8.95;3.53;;;;;;;;;;5013402;28;20064;-63
2023/03/31 08:10:23;;;;;;;6.20;2.83;;;;;;;;;;5013260;28;20052;-63
2023/03/31 08:12:53;;;;;;;10.77;2.67;;;;;;;;;;4956124;28;20046;-64
2023/03/31 08:15:24;;;;;;;9.02;2.40;;;;;;;;;;4971192;28;20062;-63
2023/03/31 08:17:54;;;;;;;14.07;3.00;;;;;;;;;;4971758;28;20061;-64
2023/03/31 08:20:23;;;;;;;7.72;3.03;;;;;;;;;;4923686;28;20076;-63
2023/03/31 08:22:53;;;;;;;8.48;3.15;;;;;;;;;;4971863;28;20528;-63
2023/03/31 08:25:26;;;;;;;6.75;2.97;;;;;;;;;;4971504;28;20058;-64
2023/03/31 08:27:56;;;;;;;11.30;3.03;;;;;;;;;;4987510;28;20055;-63
2023/03/31 08:30:25;;;;;;;5.13;2.72;;;;;;;;;;4971725;28;20062;-63
2023/03/31 08:32:55;;;;;;;7.88;2.90;;;;;;;;;;4955355;28;20063;-64
2023/03/31 08:35:26;;;;;;;7.15;2.78;;;;;;;;;;4971910;28;20062;-63
2023/03/31 08:37:56;;;;;;;6.40;2.80;;;;;;;;;;4955000;28;20503;-63
2023/03/31 08:40:27;;;;;;;9.43;3.28;;;;;;;;;;4971154;28;20054;-63
2023/03/31 08:42:58;;;;;;;8.20;2.40;;;;;;;;;;4971493;28;20688;-63
2023/03/31 08:45:35;;;;;;;5.97;2.22;;;;;;;;;;4971436;28;20053;-63
2023/03/31 08:48:37;;;;;;;7.43;2.75;;;;;;;;;;4971228;28;20051;-63
2023/03/31 08:51:27;;;;;;;8.90;2.90;;;;;;;;;;5002229;28;20057;-63
2023/03/31 08:54:19;;;;;;;7.82;3.47;;;;;;;;;;4994140;28;20050;-63
2023/03/31 08:56:52;;;;;;;10.20;3.88;;;;;;;;;;5012646;28;20042;-63
2023/03/31 08:59:36;;;;;;;10.95;3.63;;;;;;;;;;5012171;28;20057;-63
2023/03/31 09:02:21;;;;;;;13.23;3.95;;;;;;;;;;5012455;28;20030;-64
2023/03/31 09:05:00;;;;;;;10.18;3.05;;;;;;;;;;5012198;28;20046;-64
2023/03/31 09:07:39;;;;;;;;;;;;;;;;;;5012379;28;20050;-64
2023/03/31 09:10:12;;;;;;;13.10;2.90;;;;;;;;;;5025852;28;19921;-64
2023/03/31 09:13:05;;;;;;;6.05;2.85;;;;;;;;;;5011934;28;20042;-63
2023/03/31 09:16:00;;;;;;;10.75;3.40;;;;;;;;;;4961558;28;20058;-64
2023/03/31 09:18:37;;;;;;;7.63;3.13;;;;;;;;;;4993076;28;20409;-64
2023/03/31 09:21:30;;;;;;;10.32;3.33;;;;;;;;;;5010479;28;20050;-64
2023/03/31 09:24:06;;;;;;;5.95;2.92;;;;;;;;;;4961474;28;20091;-64
2023/03/31 09:26:58;;;;;;;6.32;2.65;;;;;;;;;;4977140;28;20057;-64
2023/03/31 09:29:40;;;;;;;8.70;2.97;;;;;;;;;;4951129;29;20047;-64
2023/03/31 09:32:22;;;;;;;6.68;2.80;;;;;;;;;;4952553;28;20488;-64
2023/03/31 09:34:56;;;;;;;5.70;2.92;;;;;;;;;;4951085;29;20416;-64
2023/03/31 09:37:32;;;;;;;6.30;3.20;;;;;;;;;;4935540;29;20063;-64
2023/03/31 09:40:06;;;;;;;8.10;3.17;;;;;;;;;;4951137;29;20059;-65
2023/03/31 09:42:37;;;;;;;6.57;3.15;;;;;;;;;;4935152;29;20059;-64
2023/03/31 09:45:16;;;;;;;6.55;2.90;;;;;;;;;;4908158;29;20051;-64
2023/03/31 09:47:51;;;;;;;9.30;3.35;;;;;;;;;;4948739;29;20055;-64
2023/03/31 09:50:22;;;;;;;9.80;2.75;;;;;;;;;;4912717;29;20060;-64
2023/03/31 09:52:57;;;;;;;5.35;2.40;;;;;;;;;;4913009;29;20103;-64
2023/03/31 09:56:13;;;;;;;5.70;2.60;;;;;;;;;;4913110;29;20063;-63
2023/03/31 09:58:48;;;;;;;7.00;3.30;;;;;;;;;;4913176;29;20147;-65
2023/03/31 10:01:18;;;;;;;6.70;3.20;;;;;;;;;;4913048;29;20060;-64
2023/03/31 10:03:52;;;;;;;6.93;3.72;;;;;;;;;;4866043;29;20535;-62
2023/03/31 10:06:24;;;;;;;7.80;3.83;;;;;;;;;;4920346;29;20086;-63
2023/03/31 10:09:01;;;;;;;9.05;4.05;;;;;;;;;;4931959;29;20056;-62
2023/03/31 10:11:31;;;;;;;9.05;3.70;;;;;;;;;;4931871;29;20059;-62
2023/03/31 10:14:10;;;;;;;5.85;2.92;;;;;;;;;;4931918;29;20051;-62
2023/03/31 10:16:48;;;;;;;8.48;3.13;;;;;;;;;;4912097;29;20056;-62
2023/03/31 10:19:29;;;;;;;8.00;2.95;;;;;;;;;;4912801;29;20535;-63
2023/03/31 10:22:05;;;;;;;6.47;3.00;;;;;;;;;;4912622;29;20071;-62
2023/03/31 10:24:38;;;;;;;8.00;3.25;;;;;;;;;;4881389;29;20044;-63
2023/03/31 10:27:31;;;;;;;7.57;2.78;;;;;;;;;;4893538;29;20056;-62
2023/03/31 10:30:04;;;;;;;20.33;3.45;;;;;;;;;;4924278;29;20097;-63
2023/03/31 10:32:43;;;;;;;18.23;3.03;;;;;;;;;;4919999;29;20051;-63
2023/03/31 10:35:36;;;;;;;13.43;3.28;;;;;;;;;;4923185;29;20075;-63
2023/03/31 10:38:16;;;;;;;11.45;2.80;;;;;;;;;;4954453;29;20063;-63
2023/03/31 10:40:55;;;;;;;10.77;3.53;;;;;;;;;;4954540;29;20406;-62
2023/03/31 10:43:54;;;;;;;15.35;2.90;;;;;;;;;;4954117;29;20054;-63
2023/03/31 10:46:54;;;;;;;12.20;2.35;;;;;;;;;;4878446;29;20068;-62
2023/03/31 10:49:26;;;;;;;13.93;3.17;;;;;;;;;;4865395;29;20053;-62
2023/03/31 10:52:01;;;;;;;18.95;3.42;;;;;;;;;;4865435;29;21588;-62
2023/03/31 10:54:32;;;;;;;21.80;5.78;;;;;;;;;;4891008;29;20440;-62
2023/03/31 11:05:32;;;;;;;24.88;7.35;;;;;;;;;;4902582;29;20044;-64
2023/03/31 11:08:31;;;;;;;33.15;5.25;;;;;;;;;;4887441;29;20063;-63
2023/03/31 11:11:24;;;;;;;23.92;5.40;;;;;;;;;;4899742;29;20052;-63
2023/03/31 11:14:07;;;;;;;26.92;6.20;;;;;;;;;;4933909;29;20060;-62
2023/03/31 11:16:52;;;;;;;33.03;5.85;;;;;;;;;;4914675;29;20063;-62
2023/03/31 11:19:57;;;;;;;20.38;6.25;;;;;;;;;;4898920;29;20048;-64
2023/03/31 11:22:51;;;;;;;20.00;6.00;;;;;;;;;;4919271;28;20064;-63
2023/03/31 11:25:44;;;;;;;18.63;4.63;;;;;;;;;;4975254;28;20071;-62
2023/03/31 11:28:26;;;;;;;21.02;4.90;;;;;;;;;;4930235;29;20055;-62
2023/03/31 11:31:00;;;;;;;17.35;5.32;;;;;;;;;;4933487;29;20082;-62
2023/03/31 11:34:05;;;;;;;15.60;5.65;;;;;;;;;;4912481;28;20045;-63
2023/03/31 11:36:38;;;;;;;20.30;6.18;;;;;;;;;;4924020;29;20052;-62
2023/03/31 11:39:36;;;;;;;17.67;6.82;;;;;;;;;;4931136;29;20060;-63
2023/03/31 11:42:36;;;;;;;21.17;6.40;;;;;;;;;;4891805;29;20061;-63
2023/03/31 11:45:21;;;;;;;17.90;6.47;;;;;;;;;;4876974;29;20060;-63
2023/03/31 11:47:58;;;;;;;17.02;6.45;;;;;;;;;;4845611;29;20057;-63
2023/03/31 11:50:32;;;;;;;21.33;7.03;;;;;;;;;;4876308;29;20433;-63
2023/03/31 12:14:35;;;;;;;17.52;7.18;;;;;;;;;;4869820;29;20045;-63
2023/03/31 12:17:11;;;;;;;18.80;7.32;;;;;;;;;;4861099;29;20060;-62
2023/03/31 12:19:56;;;;;;;15.88;6.45;;;;;;;;;;4940426;28;20062;-63
2023/03/31 12:22:33;;;;;;;21.95;7.75;;;;;;;;;;4991172;28;20510;-63
2023/03/31 12:25:04;;;;;;;16.08;5.53;;;;;;;;;;4943230;28;20058;-62
2023/03/31 12:27:49;;;;;;;10.93;4.88;;;;;;;;;;5001998;28;20057;-63
2023/03/31 12:30:36;;;;;;;;;;;;;;;;;;4982069;28;20053;-63
2023/03/31 12:33:18;;;;;;;13.15;4.68;;;;;;;;;;5030755;28;20285;-63
2023/03/31 12:36:20;;;;;;;12.85;5.35;;;;;;;;;;4981238;28;20049;-63
2023/03/31 12:39:20;;;;;;;11.60;5.05;;;;;;;;;;5032609;28;20041;-62
2023/03/31 12:42:19;;;;;;;14.77;6.13;;;;;;;;;;5032358;28;20388;-62
2023/03/31 12:45:25;;;;;;;12.27;5.25;;;;;;;;;;5032367;28;20489;-63
2023/03/31 12:52:05;;;;;;;11.02;5.25;;;;;;;;;;5012906;28;20519;-63
2023/03/31 12:54:35;;;;;;;11.73;4.63;;;;;;;;;;5031291;28;20050;-63
2023/03/31 12:57:09;;;;;;;9.48;4.78;;;;;;;;;;5015617;28;20057;-63
2023/03/31 12:59:42;;;;;;;12.93;5.50;;;;;;;;;;5033198;28;20056;-63
2023/03/31 13:02:15;;;;;;;12.35;5.82;;;;;;;;;;5029397;28;20397;-63
2023/03/31 13:04:45;;;;;;;14.65;6.53;;;;;;;;;;5009614;28;20545;-63
2023/03/31 13:07:20;;;;;;;8.93;4.00;;;;;;;;;;4977089;28;20050;-63
2023/03/31 13:10:27;;;;;;;17.45;6.68;;;;;;;;;;4977147;28;21167;-63
2023/03/31 13:13:05;;;;;;;11.48;4.97;;;;;;;;;;5009543;28;20418;-63
2023/03/31 13:15:35;;;;;;;16.13;7.55;;;;;;;;;;4973611;28;20058;-63
2023/03/31 13:18:06;;;;;;;22.55;9.80;;;;;;;;;;4982225;28;20046;-63
2023/03/31 13:20:39;;;;;;;45.78;23.05;;;;;;;;;;4989754;28;20070;-63
2023/03/31 13:23:18;;;;;;;49.33;22.98;;;;;;;;;;4974026;28;20061;-63
2023/03/31 13:25:55;;;;;;;18.55;8.63;;;;;;;;;;4974074;28;20182;-63
2023/03/31 13:28:31;;;;;;;15.40;7.53;;;;;;;;;;4989370;28;20491;-63
2023/03/31 13:31:05;;;;;;;12.85;6.22;;;;;;;;;;4989902;28;20069;-63
2023/03/31 13:33:56;;;;;;;8.95;4.45;;;;;;;;;;4957639;28;20062;-61
2023/03/31 13:36:32;;;;;;;11.10;5.22;;;;;;;;;;5005499;28;20509;-63
2023/03/31 13:39:23;;;;;;;10.20;4.82;;;;;;;;;;5011554;28;20045;-63
2023/03/31 13:42:16;;;;;;;8.63;4.05;;;;;;;;;;4960838;28;20510;-63
2023/03/31 13:44:50;;;;;;;12.10;4.90;;;;;;;;;;5011655;28;20053;-62
2023/03/31 13:47:33;;;;;;;9.43;3.88;;;;;;;;;;5011600;28;20056;-63
2023/03/31 13:50:27;;;;;;;7.28;3.58;;;;;;;;;;4960964;28;20053;-62
2023/03/31 13:53:08;;;;;;;10.98;3.63;;;;;;;;;;4961162;28;20065;-63
2023/03/31 13:55:56;;;;;;;6.72;3.15;;;;;;;;;;4976861;28;20503;-62
2023/03/31 13:58:51;;;;;;;6.30;3.40;;;;;;;;;;4976812;28;20057;-63
2023/03/31 14:01:39;;;;;;;5.22;2.72;;;;;;;;;;5023747;28;20046;-63
2023/03/31 14:04:39;;;;;;;5.97;3.28;;;;;;;;;;4987489;28;20058;-64
2023/03/31 14:07:20;;;;;;;5.85;3.00;;;;;;;;;;4950076;28;20570;-63
2023/03/31 14:09:52;;;;;;;6.22;2.90;;;;;;;;;;4907223;29;20755;-63
2023/03/31 14:12:34;;;;;;;7.13;3.55;;;;;;;;;;4917810;29;20066;-64
2023/03/31 14:15:06;;;;;;;5.20;3.13;;;;;;;;;;4949675;28;20047;-63
2023/03/31 14:17:39;;;;;;;5.68;3.10;;;;;;;;;;4915020;28;20067;-64
2023/03/31 14:20:27;;;;;;;5.55;3.38;;;;;;;;;;4931781;29;20063;-63
2023/03/31 14:23:02;;;;;;;4.78;2.53;;;;;;;;;;4954320;28;20043;-63
2023/03/31 14:25:41;;;;;;;6.38;3.42;;;;;;;;;;4906667;29;20578;-63
2023/03/31 14:28:45;;;;;;;6.00;3.17;;;;;;;;;;4953500;29;20051;-64
2023/03/31 14:31:36;;;;;;;12.15;5.70;;;;;;;;;;4963689;28;20059;-64
2023/03/31 14:34:25;;;;;;;6.00;3.85;;;;;;;;;;4924956;28;20067;-64
2023/03/31 14:36:57;;;;;;;7.30;4.15;;;;;;;;;;4901662;28;20059;-64
2023/03/31 14:39:31;;;;;;;7.05;2.95;;;;;;;;;;4952165;28;20059;-64
2023/03/31 14:42:09;;;;;;;4.85;3.00;;;;;;;;;;4954063;29;20458;-62
2023/03/31 14:44:41;;;;;;;;;;;;;;;;;;5000834;28;20053;-64
2023/03/31 14:47:15;;;;;;;4.38;2.35;;;;;;;;;;5009074;28;19924;-67
2023/03/31 14:49:47;;;;;;;4.60;2.20;;;;;;;;;;5023338;28;20048;-67
2023/03/31 14:52:23;;;;;;;4.28;1.85;;;;;;;;;;5032316;28;20053;-68
2023/03/31 14:54:53;;;;;;;4.95;2.10;;;;;;;;;;5015379;28;20046;-69
2023/03/31 14:57:32;;;;;;;3.95;2.00;;;;;;;;;;5008946;28;20049;-68
2023/03/31 15:00:09;;;;;;;7.00;2.88;;;;;;;;;;5033228;28;20512;-68
2023/03/31 15:02:44;;;;;;;4.05;1.60;;;;;;;;;;5037702;28;20037;-68
2023/03/31 15:05:30;;;;;;;3.58;1.77;;;;;;;;;;5002163;28;20527;-68
2023/03/31 15:08:21;;;;;;;3.25;1.55;;;;;;;;;;5033868;28;20497;-69
2023/03/31 15:10:55;;;;;;;2.70;1.25;;;;;;;;;;5032591;28;20037;-68
2023/03/31 15:13:46;;;;;;;1.85;1.00;;;;;;;;;;5035745;28;20519;-70
2023/03/31 15:16:40;;;;;;;2.70;0.77;;;;;;;;;;4989112;28;20048;-69
2023/03/31 15:19:25;;;;;;;1.48;0.50;;;;;;;;;;4986283;28;20521;-69
2023/03/31 15:22:01;;;;;;;1.77;0.60;;;;;;;;;;5039316;28;20037;-71
2023/03/31 15:24:32;;;;;;;1.27;0.50;;;;;;;;;;5042470;28;20037;-70
2023/03/31 15:27:12;;;;;;;1.13;0.60;;;;;;;;;;5042897;28;20061;-71
2023/03/31 15:29:51;;;;;;;2.08;0.45;;;;;;;;;;5035170;28;20551;-70
2023/03/31 15:32:35;;;;;;;0.82;0.50;;;;;;;;;;5033883;28;20049;-69
2023/03/31 15:35:06;;;;;;;1.70;0.50;;;;;;;;;;5022098;28;20049;-69
2023/03/31 15:37:53;;;;;;;;;;;;;;;;;;5012233;28;20041;-68
2023/03/31 15:40:42;;;;;;;1.02;0.35;;;;;;;;;;5032967;28;19921;-70
2023/03/31 15:43:17;;;;;;;0.88;0.55;;;;;;;;;;4994270;28;20541;-71
2023/03/31 15:46:00;;;;;;;1.63;0.40;;;;;;;;;;5024573;28;20049;-69
2023/03/31 15:48:47;;;;;;;0.95;0.63;;;;;;;;;;5022021;28;20520;-70
2023/03/31 15:51:23;;;;;;;0.50;0.40;;;;;;;;;;4987187;28;20060;-70
2023/03/31 15:53:53;;;;;;;1.88;0.40;;;;;;;;;;5011195;28;20053;-69
2023/03/31 15:56:29;;;;;;;0.77;0.40;;;;;;;;;;4993729;28;20058;-68
2023/03/31 15:59:04;;;;;;;0.70;0.50;;;;;;;;;;4993984;28;20058;-68
2023/03/31 16:01:43;;;;;;;0.60;0.40;;;;;;;;;;4994325;28;20054;-71
2023/03/31 16:04:14;;;;;;;0.77;0.50;;;;;;;;;;5010065;28;20065;-71
2023/03/31 16:06:44;;;;;;;0.77;0.30;;;;;;;;;;5018280;28;20465;-71
2023/03/31 16:09:40;;;;;;;1.75;0.30;;;;;;;;;;5028747;28;20049;-70
2023/03/31 16:12:30;;;;;;;0.63;0.30;;;;;;;;;;5010231;28;20077;-72
2023/03/31 16:15:08;;;;;;;0.77;0.52;;;;;;;;;;4981417;28;20521;-70
2023/03/31 16:17:49;;;;;;;3.67;0.40;;;;;;;;;;4961610;28;20506;-71